sensor_id;sensor_type;location;lat;lon;timestamp;P1;durP1;ratioP1;P2;durP2;ratioP2
59587;SDS011;45412;54.472;18.464;2023-03-14T00:00:41;12.40;;;5.40;;
59587;SDS011;45412;54.472;18.464;2023-03-14T00:03:28;10.90;;;5.20;;
59587;SDS011;45412;54.472;18.464;2023-03-14T00:06:16;11.40;;;5.80;;
59587;SDS011;45412;54.472;18.464;2023-03-14T00:09:03;10.90;;;5.50;;
59587;SDS011;45412;54.472;18.464;2023-03-14T00:11:50;10.00;;;4.80;;
59587;SDS011;45412;54.472;18.464;2023-03-14T00:14:36;10.50;;;4.90;;
59587;SDS011;45412;54.472;18.464;2023-03-14T00:17:22;9.60;;;4.60;;
59587;SDS011;45412;54.472;18.464;2023-03-14T00:20:09;11.60;;;5.30;;
59587;SDS011;45412;54.472;18.464;2023-03-14T00:22:57;11.40;;;5.00;;
59587;SDS011;45412;54.472;18.464;2023-03-14T00:25:43;11.50;;;5.40;;
59587;SDS011;45412;54.472;18.464;2023-03-14T00:28:30;11.60;;;5.10;;
59587;SDS011;45412;54.472;18.464;2023-03-14T00:31:16;11.10;;;5.30;;
59587;SDS011;45412;54.472;18.464;2023-03-14T00:34:03;12.50;;;5.20;;
59587;SDS011;45412;54.472;18.464;2023-03-14T00:36:51;11.70;;;5.30;;
59587;SDS011;45412;54.472;18.464;2023-03-14T00:39:37;9.70;;;4.50;;
59587;SDS011;45412;54.472;18.464;2023-03-14T00:42:23;12.50;;;5.00;;
59587;SDS011;45412;54.472;18.464;2023-03-14T00:45:10;10.00;;;4.70;;
59587;SDS011;45412;54.472;18.464;2023-03-14T00:47:56;12.20;;;5.20;;
59587;SDS011;45412;54.472;18.464;2023-03-14T00:50:44;11.40;;;4.90;;
59587;SDS011;45412;54.472;18.464;2023-03-14T00:53:36;11.80;;;5.50;;
59587;SDS011;45412;54.472;18.464;2023-03-14T00:56:24;9.40;;;5.00;;
59587;SDS011;45412;54.472;18.464;2023-03-14T00:59:11;11.60;;;4.80;;
59587;SDS011;45412;54.472;18.464;2023-03-14T01:01:57;10.70;;;5.10;;
59587;SDS011;45412;54.472;18.464;2023-03-14T01:04:44;10.30;;;4.60;;
59587;SDS011;45412;54.472;18.464;2023-03-14T01:07:34;11.80;;;4.70;;
59587;SDS011;45412;54.472;18.464;2023-03-14T01:10:20;11.20;;;5.00;;
59587;SDS011;45412;54.472;18.464;2023-03-14T01:13:08;10.80;;;4.90;;
59587;SDS011;45412;54.472;18.464;2023-03-14T01:15:55;9.50;;;4.10;;
59587;SDS011;45412;54.472;18.464;2023-03-14T01:18:48;11.10;;;5.00;;
59587;SDS011;45412;54.472;18.464;2023-03-14T01:21:35;10.50;;;5.10;;
59587;SDS011;45412;54.472;18.464;2023-03-14T01:24:22;10.40;;;4.60;;
59587;SDS011;45412;54.472;18.464;2023-03-14T01:27:08;9.50;;;4.40;;
59587;SDS011;45412;54.472;18.464;2023-03-14T01:29:55;9.20;;;4.30;;
59587;SDS011;45412;54.472;18.464;2023-03-14T01:32:41;10.50;;;4.70;;
59587;SDS011;45412;54.472;18.464;2023-03-14T01:35:28;10.30;;;5.20;;
59587;SDS011;45412;54.472;18.464;2023-03-14T01:38:15;11.30;;;4.80;;
59587;SDS011;45412;54.472;18.464;2023-03-14T01:41:03;10.10;;;4.80;;
59587;SDS011;45412;54.472;18.464;2023-03-14T01:43:50;10.10;;;4.70;;
59587;SDS011;45412;54.472;18.464;2023-03-14T01:46:43;13.20;;;4.90;;
59587;SDS011;45412;54.472;18.464;2023-03-14T01:49:33;12.20;;;5.00;;
59587;SDS011;45412;54.472;18.464;2023-03-14T01:52:41;10.00;;;4.10;;
59587;SDS011;45412;54.472;18.464;2023-03-14T01:55:32;9.60;;;4.30;;
59587;SDS011;45412;54.472;18.464;2023-03-14T01:58:19;14.10;;;5.00;;
59587;SDS011;45412;54.472;18.464;2023-03-14T02:01:09;10.10;;;4.70;;
59587;SDS011;45412;54.472;18.464;2023-03-14T02:03:57;9.80;;;4.50;;
59587;SDS011;45412;54.472;18.464;2023-03-14T02:10:28;9.70;;;4.20;;
59587;SDS011;45412;54.472;18.464;2023-03-14T02:13:20;10.90;;;4.50;;
59587;SDS011;45412;54.472;18.464;2023-03-14T02:16:26;10.80;;;4.30;;
59587;SDS011;45412;54.472;18.464;2023-03-14T02:22:47;9.10;;;4.80;;
59587;SDS011;45412;54.472;18.464;2023-03-14T02:28:23;12.60;;;4.80;;
59587;SDS011;45412;54.472;18.464;2023-03-14T02:31:14;10.50;;;4.30;;
59587;SDS011;45412;54.472;18.464;2023-03-14T02:34:02;12.00;;;4.10;;
59587;SDS011;45412;54.472;18.464;2023-03-14T02:36:49;10.80;;;3.60;;
59587;SDS011;45412;54.472;18.464;2023-03-14T02:39:41;11.30;;;4.40;;
59587;SDS011;45412;54.472;18.464;2023-03-14T02:42:30;10.80;;;4.60;;
59587;SDS011;45412;54.472;18.464;2023-03-14T02:48:25;10.60;;;4.30;;
59587;SDS011;45412;54.472;18.464;2023-03-14T02:51:14;9.30;;;4.10;;
59587;SDS011;45412;54.472;18.464;2023-03-14T02:54:03;10.30;;;4.50;;
59587;SDS011;45412;54.472;18.464;2023-03-14T02:56:50;9.40;;;4.10;;
59587;SDS011;45412;54.472;18.464;2023-03-14T02:59:37;9.20;;;4.10;;
59587;SDS011;45412;54.472;18.464;2023-03-14T03:02:31;10.40;;;3.90;;
59587;SDS011;45412;54.472;18.464;2023-03-14T03:05:18;10.00;;;4.20;;
59587;SDS011;45412;54.472;18.464;2023-03-14T03:08:04;9.00;;;4.10;;
59587;SDS011;45412;54.472;18.464;2023-03-14T03:10:52;9.80;;;3.90;;
59587;SDS011;45412;54.472;18.464;2023-03-14T03:13:39;10.10;;;4.10;;
59587;SDS011;45412;54.472;18.464;2023-03-14T03:16:26;8.90;;;4.30;;
59587;SDS011;45412;54.472;18.464;2023-03-14T03:19:13;9.30;;;3.80;;
59587;SDS011;45412;54.472;18.464;2023-03-14T03:22:00;8.20;;;3.60;;
59587;SDS011;45412;54.472;18.464;2023-03-14T03:24:47;9.70;;;4.20;;
59587;SDS011;45412;54.472;18.464;2023-03-14T03:27:36;9.90;;;4.20;;
59587;SDS011;45412;54.472;18.464;2023-03-14T03:30:23;9.20;;;4.10;;
59587;SDS011;45412;54.472;18.464;2023-03-14T03:33:11;9.40;;;4.00;;
59587;SDS011;45412;54.472;18.464;2023-03-14T03:36:02;8.90;;;3.90;;
59587;SDS011;45412;54.472;18.464;2023-03-14T03:38:51;10.60;;;4.40;;
59587;SDS011;45412;54.472;18.464;2023-03-14T03:41:38;8.70;;;3.80;;
59587;SDS011;45412;54.472;18.464;2023-03-14T03:44:24;9.80;;;4.10;;
59587;SDS011;45412;54.472;18.464;2023-03-14T03:47:11;10.00;;;4.10;;
59587;SDS011;45412;54.472;18.464;2023-03-14T03:49:57;10.50;;;4.10;;
59587;SDS011;45412;54.472;18.464;2023-03-14T03:52:44;10.40;;;4.00;;
59587;SDS011;45412;54.472;18.464;2023-03-14T03:55:30;10.30;;;4.10;;
59587;SDS011;45412;54.472;18.464;2023-03-14T03:58:17;10.30;;;4.40;;
59587;SDS011;45412;54.472;18.464;2023-03-14T04:01:03;11.60;;;4.60;;
59587;SDS011;45412;54.472;18.464;2023-03-14T04:03:51;9.90;;;4.00;;
59587;SDS011;45412;54.472;18.464;2023-03-14T04:06:38;11.80;;;3.90;;
59587;SDS011;45412;54.472;18.464;2023-03-14T04:09:27;8.60;;;4.00;;
59587;SDS011;45412;54.472;18.464;2023-03-14T04:12:27;10.80;;;4.60;;
59587;SDS011;45412;54.472;18.464;2023-03-14T04:15:43;9.60;;;4.10;;
59587;SDS011;45412;54.472;18.464;2023-03-14T04:18:37;10.60;;;3.70;;
59587;SDS011;45412;54.472;18.464;2023-03-14T04:21:23;9.40;;;4.00;;
59587;SDS011;45412;54.472;18.464;2023-03-14T04:24:14;9.10;;;4.20;;
59587;SDS011;45412;54.472;18.464;2023-03-14T04:27:04;10.30;;;4.10;;
59587;SDS011;45412;54.472;18.464;2023-03-14T04:29:51;9.10;;;3.90;;
59587;SDS011;45412;54.472;18.464;2023-03-14T04:32:45;11.40;;;4.40;;
59587;SDS011;45412;54.472;18.464;2023-03-14T04:35:32;11.60;;;4.10;;
59587;SDS011;45412;54.472;18.464;2023-03-14T04:38:24;10.10;;;4.10;;
59587;SDS011;45412;54.472;18.464;2023-03-14T04:41:11;9.70;;;3.60;;
59587;SDS011;45412;54.472;18.464;2023-03-14T04:43:58;10.00;;;4.10;;
59587;SDS011;45412;54.472;18.464;2023-03-14T04:46:45;10.80;;;4.00;;
59587;SDS011;45412;54.472;18.464;2023-03-14T04:49:32;9.90;;;4.10;;
59587;SDS011;45412;54.472;18.464;2023-03-14T04:52:19;10.10;;;4.00;;
59587;SDS011;45412;54.472;18.464;2023-03-14T04:55:06;10.40;;;4.30;;
59587;SDS011;45412;54.472;18.464;2023-03-14T04:57:53;9.50;;;4.10;;
59587;SDS011;45412;54.472;18.464;2023-03-14T05:00:40;10.60;;;4.20;;
59587;SDS011;45412;54.472;18.464;2023-03-14T05:03:50;10.20;;;4.10;;
59587;SDS011;45412;54.472;18.464;2023-03-14T05:07:02;9.40;;;3.80;;
59587;SDS011;45412;54.472;18.464;2023-03-14T05:10:15;8.80;;;4.10;;
59587;SDS011;45412;54.472;18.464;2023-03-14T05:13:31;8.40;;;3.80;;
59587;SDS011;45412;54.472;18.464;2023-03-14T05:16:56;9.60;;;3.70;;
59587;SDS011;45412;54.472;18.464;2023-03-14T05:20:03;10.90;;;4.00;;
59587;SDS011;45412;54.472;18.464;2023-03-14T05:23:14;10.40;;;4.60;;
59587;SDS011;45412;54.472;18.464;2023-03-14T05:26:19;13.00;;;5.60;;
59587;SDS011;45412;54.472;18.464;2023-03-14T05:29:26;14.60;;;4.70;;
59587;SDS011;45412;54.472;18.464;2023-03-14T05:32:23;9.70;;;4.20;;
59587;SDS011;45412;54.472;18.464;2023-03-14T05:35:27;12.40;;;4.70;;
59587;SDS011;45412;54.472;18.464;2023-03-14T05:38:30;10.10;;;4.50;;
59587;SDS011;45412;54.472;18.464;2023-03-14T05:41:36;13.90;;;5.50;;
59587;SDS011;45412;54.472;18.464;2023-03-14T05:44:37;10.30;;;4.20;;
59587;SDS011;45412;54.472;18.464;2023-03-14T05:47:32;11.70;;;4.60;;
59587;SDS011;45412;54.472;18.464;2023-03-14T05:50:41;11.40;;;3.80;;
59587;SDS011;45412;54.472;18.464;2023-03-14T05:53:38;10.60;;;4.30;;
59587;SDS011;45412;54.472;18.464;2023-03-14T05:56:43;11.30;;;3.60;;
59587;SDS011;45412;54.472;18.464;2023-03-14T05:59:53;8.10;;;3.60;;
59587;SDS011;45412;54.472;18.464;2023-03-14T06:02:58;9.50;;;3.70;;
59587;SDS011;45412;54.472;18.464;2023-03-14T06:05:50;9.30;;;3.40;;
59587;SDS011;45412;54.472;18.464;2023-03-14T06:08:37;9.80;;;4.00;;
59587;SDS011;45412;54.472;18.464;2023-03-14T06:11:24;11.30;;;4.30;;
59587;SDS011;45412;54.472;18.464;2023-03-14T06:14:10;9.80;;;3.90;;
59587;SDS011;45412;54.472;18.464;2023-03-14T06:16:59;9.00;;;3.20;;
59587;SDS011;45412;54.472;18.464;2023-03-14T06:19:47;11.20;;;4.10;;
59587;SDS011;45412;54.472;18.464;2023-03-14T06:22:33;9.20;;;3.40;;
59587;SDS011;45412;54.472;18.464;2023-03-14T06:25:20;10.40;;;3.80;;
59587;SDS011;45412;54.472;18.464;2023-03-14T06:28:07;9.80;;;3.60;;
59587;SDS011;45412;54.472;18.464;2023-03-14T06:30:54;10.50;;;3.60;;
59587;SDS011;45412;54.472;18.464;2023-03-14T06:33:41;10.00;;;3.60;;
59587;SDS011;45412;54.472;18.464;2023-03-14T06:36:28;11.30;;;4.80;;
59587;SDS011;45412;54.472;18.464;2023-03-14T06:39:15;8.50;;;3.50;;
59587;SDS011;45412;54.472;18.464;2023-03-14T06:42:03;14.00;;;5.70;;
59587;SDS011;45412;54.472;18.464;2023-03-14T06:44:50;10.80;;;3.80;;
59587;SDS011;45412;54.472;18.464;2023-03-14T06:47:37;9.10;;;4.10;;
59587;SDS011;45412;54.472;18.464;2023-03-14T06:50:24;11.60;;;4.80;;
59587;SDS011;45412;54.472;18.464;2023-03-14T06:53:12;9.20;;;3.70;;
59587;SDS011;45412;54.472;18.464;2023-03-14T06:55:59;11.10;;;3.60;;
59587;SDS011;45412;54.472;18.464;2023-03-14T06:58:46;10.00;;;3.80;;
59587;SDS011;45412;54.472;18.464;2023-03-14T07:01:36;9.50;;;3.50;;
59587;SDS011;45412;54.472;18.464;2023-03-14T07:04:26;7.90;;;3.40;;
59587;SDS011;45412;54.472;18.464;2023-03-14T07:07:13;10.00;;;3.70;;
59587;SDS011;45412;54.472;18.464;2023-03-14T07:10:00;8.10;;;3.20;;
59587;SDS011;45412;54.472;18.464;2023-03-14T07:12:46;9.30;;;2.90;;
59587;SDS011;45412;54.472;18.464;2023-03-14T07:15:33;8.80;;;3.30;;
59587;SDS011;45412;54.472;18.464;2023-03-14T07:18:23;9.40;;;3.60;;
59587;SDS011;45412;54.472;18.464;2023-03-14T07:21:09;8.70;;;3.10;;
59587;SDS011;45412;54.472;18.464;2023-03-14T07:23:56;9.70;;;3.00;;
59587;SDS011;45412;54.472;18.464;2023-03-14T07:26:43;7.40;;;2.80;;
59587;SDS011;45412;54.472;18.464;2023-03-14T07:29:30;7.00;;;2.90;;
59587;SDS011;45412;54.472;18.464;2023-03-14T07:32:17;7.50;;;3.10;;
59587;SDS011;45412;54.472;18.464;2023-03-14T07:35:05;8.10;;;3.30;;
59587;SDS011;45412;54.472;18.464;2023-03-14T07:37:55;7.30;;;3.40;;
59587;SDS011;45412;54.472;18.464;2023-03-14T07:40:47;8.30;;;3.10;;
59587;SDS011;45412;54.472;18.464;2023-03-14T07:43:33;8.20;;;3.10;;
59587;SDS011;45412;54.472;18.464;2023-03-14T07:46:20;9.30;;;3.60;;
59587;SDS011;45412;54.472;18.464;2023-03-14T07:49:06;10.90;;;3.90;;
59587;SDS011;45412;54.472;18.464;2023-03-14T07:51:53;8.20;;;3.30;;
59587;SDS011;45412;54.472;18.464;2023-03-14T07:54:40;7.60;;;3.40;;
59587;SDS011;45412;54.472;18.464;2023-03-14T07:57:27;8.80;;;3.10;;
59587;SDS011;45412;54.472;18.464;2023-03-14T08:00:13;12.10;;;2.80;;
59587;SDS011;45412;54.472;18.464;2023-03-14T08:03:01;7.80;;;3.00;;
59587;SDS011;45412;54.472;18.464;2023-03-14T08:05:49;7.50;;;2.90;;
59587;SDS011;45412;54.472;18.464;2023-03-14T08:08:36;7.10;;;2.90;;
59587;SDS011;45412;54.472;18.464;2023-03-14T08:11:24;8.00;;;3.30;;
59587;SDS011;45412;54.472;18.464;2023-03-14T08:14:10;7.60;;;2.80;;
59587;SDS011;45412;54.472;18.464;2023-03-14T08:16:57;7.70;;;3.30;;
59587;SDS011;45412;54.472;18.464;2023-03-14T08:19:43;8.80;;;3.20;;
59587;SDS011;45412;54.472;18.464;2023-03-14T08:22:31;9.30;;;3.80;;
59587;SDS011;45412;54.472;18.464;2023-03-14T08:25:18;8.10;;;3.30;;
59587;SDS011;45412;54.472;18.464;2023-03-14T08:28:05;10.10;;;3.80;;
59587;SDS011;45412;54.472;18.464;2023-03-14T08:30:51;8.10;;;3.80;;
59587;SDS011;45412;54.472;18.464;2023-03-14T08:33:40;8.60;;;3.40;;
59587;SDS011;45412;54.472;18.464;2023-03-14T08:36:27;8.00;;;3.10;;
59587;SDS011;45412;54.472;18.464;2023-03-14T08:39:14;8.50;;;3.70;;
59587;SDS011;45412;54.472;18.464;2023-03-14T08:42:00;7.80;;;3.50;;
59587;SDS011;45412;54.472;18.464;2023-03-14T08:44:46;10.20;;;3.60;;
59587;SDS011;45412;54.472;18.464;2023-03-14T08:47:33;7.80;;;2.90;;
59587;SDS011;45412;54.472;18.464;2023-03-14T08:50:20;7.90;;;3.50;;
59587;SDS011;45412;54.472;18.464;2023-03-14T08:53:08;8.40;;;3.40;;
59587;SDS011;45412;54.472;18.464;2023-03-14T08:55:55;7.50;;;3.40;;
59587;SDS011;45412;54.472;18.464;2023-03-14T08:58:41;7.40;;;3.40;;
59587;SDS011;45412;54.472;18.464;2023-03-14T09:01:28;8.30;;;3.50;;
59587;SDS011;45412;54.472;18.464;2023-03-14T09:04:15;8.40;;;3.30;;
59587;SDS011;45412;54.472;18.464;2023-03-14T09:07:03;8.20;;;3.60;;
59587;SDS011;45412;54.472;18.464;2023-03-14T09:09:49;9.90;;;3.40;;
59587;SDS011;45412;54.472;18.464;2023-03-14T09:12:36;9.60;;;3.50;;
59587;SDS011;45412;54.472;18.464;2023-03-14T09:15:22;9.50;;;3.20;;
59587;SDS011;45412;54.472;18.464;2023-03-14T09:18:09;9.10;;;3.80;;
59587;SDS011;45412;54.472;18.464;2023-03-14T09:20:55;10.40;;;3.50;;
59587;SDS011;45412;54.472;18.464;2023-03-14T09:23:42;8.00;;;3.30;;
59587;SDS011;45412;54.472;18.464;2023-03-14T09:26:29;8.80;;;3.50;;
59587;SDS011;45412;54.472;18.464;2023-03-14T09:29:16;8.40;;;3.70;;
59587;SDS011;45412;54.472;18.464;2023-03-14T09:32:02;7.30;;;3.30;;
59587;SDS011;45412;54.472;18.464;2023-03-14T09:34:49;7.60;;;3.30;;
59587;SDS011;45412;54.472;18.464;2023-03-14T09:37:36;9.50;;;3.70;;
59587;SDS011;45412;54.472;18.464;2023-03-14T09:40:22;6.50;;;2.90;;
59587;SDS011;45412;54.472;18.464;2023-03-14T09:43:12;8.30;;;3.40;;
59587;SDS011;45412;54.472;18.464;2023-03-14T09:46:02;9.30;;;3.40;;
59587;SDS011;45412;54.472;18.464;2023-03-14T09:48:48;8.30;;;3.30;;
59587;SDS011;45412;54.472;18.464;2023-03-14T09:51:35;9.00;;;3.50;;
59587;SDS011;45412;54.472;18.464;2023-03-14T09:54:36;8.20;;;3.70;;
59587;SDS011;45412;54.472;18.464;2023-03-14T09:57:27;7.60;;;3.50;;
59587;SDS011;45412;54.472;18.464;2023-03-14T10:00:19;8.80;;;3.30;;
59587;SDS011;45412;54.472;18.464;2023-03-14T10:03:19;8.90;;;3.70;;
59587;SDS011;45412;54.472;18.464;2023-03-14T10:06:13;9.10;;;3.90;;
59587;SDS011;45412;54.472;18.464;2023-03-14T10:09:02;9.20;;;3.80;;
59587;SDS011;45412;54.472;18.464;2023-03-14T10:11:49;9.60;;;3.90;;
59587;SDS011;45412;54.472;18.464;2023-03-14T10:14:37;9.00;;;3.80;;
59587;SDS011;45412;54.472;18.464;2023-03-14T10:18:22;8.30;;;3.50;;
59587;SDS011;45412;54.472;18.464;2023-03-14T10:21:26;8.00;;;3.40;;
59587;SDS011;45412;54.472;18.464;2023-03-14T10:27:22;7.50;;;3.20;;
59587;SDS011;45412;54.472;18.464;2023-03-14T10:30:43;8.10;;;3.70;;
59587;SDS011;45412;54.472;18.464;2023-03-14T10:33:34;10.00;;;3.80;;
59587;SDS011;45412;54.472;18.464;2023-03-14T10:36:27;7.20;;;3.40;;
59587;SDS011;45412;54.472;18.464;2023-03-14T10:42:12;8.90;;;4.10;;
59587;SDS011;45412;54.472;18.464;2023-03-14T10:48:20;8.70;;;3.80;;
59587;SDS011;45412;54.472;18.464;2023-03-14T10:51:22;8.70;;;4.00;;
59587;SDS011;45412;54.472;18.464;2023-03-14T10:54:13;10.70;;;4.10;;
59587;SDS011;45412;54.472;18.464;2023-03-14T10:57:06;9.10;;;3.70;;
59587;SDS011;45412;54.472;18.464;2023-03-14T10:59:53;8.00;;;3.60;;
59587;SDS011;45412;54.472;18.464;2023-03-14T11:09:42;8.90;;;3.50;;
59587;SDS011;45412;54.472;18.464;2023-03-14T11:23:13;8.90;;;4.30;;
59587;SDS011;45412;54.472;18.464;2023-03-14T11:29:22;9.80;;;3.40;;
59587;SDS011;45412;54.472;18.464;2023-03-14T11:32:36;10.30;;;3.70;;
59587;SDS011;45412;54.472;18.464;2023-03-14T11:35:26;8.70;;;3.20;;
59587;SDS011;45412;54.472;18.464;2023-03-14T11:41:33;7.90;;;3.20;;
59587;SDS011;45412;54.472;18.464;2023-03-14T11:44:38;7.80;;;3.40;;
59587;SDS011;45412;54.472;18.464;2023-03-14T11:47:31;10.20;;;3.90;;
59587;SDS011;45412;54.472;18.464;2023-03-14T11:50:26;9.90;;;3.30;;
59587;SDS011;45412;54.472;18.464;2023-03-14T11:53:38;9.30;;;3.70;;
59587;SDS011;45412;54.472;18.464;2023-03-14T11:56:39;8.00;;;3.70;;
59587;SDS011;45412;54.472;18.464;2023-03-14T11:59:56;7.60;;;3.10;;
59587;SDS011;45412;54.472;18.464;2023-03-14T12:06:28;8.60;;;3.30;;
59587;SDS011;45412;54.472;18.464;2023-03-14T12:09:18;10.30;;;3.80;;
59587;SDS011;45412;54.472;18.464;2023-03-14T12:12:11;7.70;;;3.20;;
59587;SDS011;45412;54.472;18.464;2023-03-14T12:15:04;8.10;;;3.20;;
59587;SDS011;45412;54.472;18.464;2023-03-14T12:17:55;8.60;;;2.90;;
59587;SDS011;45412;54.472;18.464;2023-03-14T12:20:51;10.20;;;3.40;;
59587;SDS011;45412;54.472;18.464;2023-03-14T12:27:12;7.80;;;3.10;;
59587;SDS011;45412;54.472;18.464;2023-03-14T12:33:29;7.70;;;3.00;;
59587;SDS011;45412;54.472;18.464;2023-03-14T12:36:31;8.90;;;3.50;;
59587;SDS011;45412;54.472;18.464;2023-03-14T12:43:00;9.30;;;3.60;;
59587;SDS011;45412;54.472;18.464;2023-03-14T12:46:09;9.60;;;3.50;;
59587;SDS011;45412;54.472;18.464;2023-03-14T12:51:48;8.30;;;3.00;;
59587;SDS011;45412;54.472;18.464;2023-03-14T12:58:06;8.40;;;2.80;;
59587;SDS011;45412;54.472;18.464;2023-03-14T13:01:04;11.70;;;3.30;;
59587;SDS011;45412;54.472;18.464;2023-03-14T13:04:01;9.20;;;2.80;;
59587;SDS011;45412;54.472;18.464;2023-03-14T13:06:55;7.40;;;2.70;;
59587;SDS011;45412;54.472;18.464;2023-03-14T13:16:10;9.40;;;2.80;;
59587;SDS011;45412;54.472;18.464;2023-03-14T13:19:15;8.50;;;2.60;;
59587;SDS011;45412;54.472;18.464;2023-03-14T13:22:30;8.00;;;2.50;;
59587;SDS011;45412;54.472;18.464;2023-03-14T13:25:19;7.10;;;2.50;;
59587;SDS011;45412;54.472;18.464;2023-03-14T13:28:09;8.50;;;2.60;;
59587;SDS011;45412;54.472;18.464;2023-03-14T13:31:01;8.10;;;2.50;;
59587;SDS011;45412;54.472;18.464;2023-03-14T13:34:01;9.40;;;2.60;;
59587;SDS011;45412;54.472;18.464;2023-03-14T13:36:52;7.30;;;2.40;;
59587;SDS011;45412;54.472;18.464;2023-03-14T13:39:39;9.80;;;2.60;;
59587;SDS011;45412;54.472;18.464;2023-03-14T13:42:27;7.90;;;2.60;;
59587;SDS011;45412;54.472;18.464;2023-03-14T13:45:15;8.40;;;2.40;;
59587;SDS011;45412;54.472;18.464;2023-03-14T13:48:05;8.70;;;2.20;;
59587;SDS011;45412;54.472;18.464;2023-03-14T13:50:58;7.90;;;2.40;;
59587;SDS011;45412;54.472;18.464;2023-03-14T13:53:52;8.30;;;2.10;;
59587;SDS011;45412;54.472;18.464;2023-03-14T13:56:40;7.50;;;2.10;;
59587;SDS011;45412;54.472;18.464;2023-03-14T13:59:32;7.60;;;2.30;;
59587;SDS011;45412;54.472;18.464;2023-03-14T14:02:20;8.50;;;2.30;;
59587;SDS011;45412;54.472;18.464;2023-03-14T14:05:10;11.00;;;2.50;;
59587;SDS011;45412;54.472;18.464;2023-03-14T14:07:58;9.10;;;3.10;;
59587;SDS011;45412;54.472;18.464;2023-03-14T14:10:45;12.70;;;2.80;;
59587;SDS011;45412;54.472;18.464;2023-03-14T14:13:35;8.50;;;2.50;;
59587;SDS011;45412;54.472;18.464;2023-03-14T14:16:24;10.00;;;2.70;;
59587;SDS011;45412;54.472;18.464;2023-03-14T14:19:12;8.10;;;2.50;;
59587;SDS011;45412;54.472;18.464;2023-03-14T14:22:01;8.90;;;2.50;;
59587;SDS011;45412;54.472;18.464;2023-03-14T14:24:49;9.30;;;2.70;;
59587;SDS011;45412;54.472;18.464;2023-03-14T14:27:41;9.40;;;2.90;;
59587;SDS011;45412;54.472;18.464;2023-03-14T14:30:32;7.90;;;2.20;;
59587;SDS011;45412;54.472;18.464;2023-03-14T14:33:20;11.00;;;2.70;;
59587;SDS011;45412;54.472;18.464;2023-03-14T14:36:23;8.80;;;2.70;;
59587;SDS011;45412;54.472;18.464;2023-03-14T14:39:28;8.60;;;2.70;;
59587;SDS011;45412;54.472;18.464;2023-03-14T14:42:17;10.50;;;2.90;;
59587;SDS011;45412;54.472;18.464;2023-03-14T14:45:33;9.20;;;2.70;;
59587;SDS011;45412;54.472;18.464;2023-03-14T14:48:25;8.40;;;2.40;;
59587;SDS011;45412;54.472;18.464;2023-03-14T14:51:23;9.80;;;3.00;;
59587;SDS011;45412;54.472;18.464;2023-03-14T14:54:19;8.60;;;2.40;;
59587;SDS011;45412;54.472;18.464;2023-03-14T14:57:21;8.70;;;2.30;;
59587;SDS011;45412;54.472;18.464;2023-03-14T15:00:19;7.40;;;2.30;;
59587;SDS011;45412;54.472;18.464;2023-03-14T15:03:13;9.40;;;2.60;;
59587;SDS011;45412;54.472;18.464;2023-03-14T15:06:02;8.60;;;2.50;;
59587;SDS011;45412;54.472;18.464;2023-03-14T15:08:49;9.10;;;2.80;;
59587;SDS011;45412;54.472;18.464;2023-03-14T15:11:36;11.50;;;3.10;;
59587;SDS011;45412;54.472;18.464;2023-03-14T15:14:23;8.90;;;2.80;;
59587;SDS011;45412;54.472;18.464;2023-03-14T15:17:10;7.60;;;2.30;;
59587;SDS011;45412;54.472;18.464;2023-03-14T15:19:58;8.20;;;2.20;;
59587;SDS011;45412;54.472;18.464;2023-03-14T15:22:45;8.00;;;2.50;;
59587;SDS011;45412;54.472;18.464;2023-03-14T15:25:32;8.10;;;2.30;;
59587;SDS011;45412;54.472;18.464;2023-03-14T15:28:39;10.00;;;2.30;;
59587;SDS011;45412;54.472;18.464;2023-03-14T15:31:26;8.30;;;2.60;;
59587;SDS011;45412;54.472;18.464;2023-03-14T15:34:12;10.20;;;2.90;;
59587;SDS011;45412;54.472;18.464;2023-03-14T15:36:59;10.30;;;2.50;;
59587;SDS011;45412;54.472;18.464;2023-03-14T15:39:45;10.20;;;3.10;;
59587;SDS011;45412;54.472;18.464;2023-03-14T15:42:32;11.40;;;3.30;;
59587;SDS011;45412;54.472;18.464;2023-03-14T15:45:21;10.40;;;3.50;;
59587;SDS011;45412;54.472;18.464;2023-03-14T15:48:16;9.50;;;3.50;;
59587;SDS011;45412;54.472;18.464;2023-03-14T15:51:04;10.60;;;3.30;;
59587;SDS011;45412;54.472;18.464;2023-03-14T15:53:51;11.90;;;3.90;;
59587;SDS011;45412;54.472;18.464;2023-03-14T15:56:37;10.70;;;3.70;;
59587;SDS011;45412;54.472;18.464;2023-03-14T15:59:26;10.10;;;3.90;;
59587;SDS011;45412;54.472;18.464;2023-03-14T16:02:15;10.50;;;2.80;;
59587;SDS011;45412;54.472;18.464;2023-03-14T16:05:01;8.90;;;2.50;;
59587;SDS011;45412;54.472;18.464;2023-03-14T16:07:48;8.00;;;2.70;;
59587;SDS011;45412;54.472;18.464;2023-03-14T16:10:35;8.50;;;2.60;;
59587;SDS011;45412;54.472;18.464;2023-03-14T16:13:21;10.30;;;3.20;;
59587;SDS011;45412;54.472;18.464;2023-03-14T16:16:09;10.40;;;3.10;;
59587;SDS011;45412;54.472;18.464;2023-03-14T16:18:58;10.00;;;3.40;;
59587;SDS011;45412;54.472;18.464;2023-03-14T16:21:44;11.50;;;3.20;;
59587;SDS011;45412;54.472;18.464;2023-03-14T16:24:31;12.60;;;3.50;;
59587;SDS011;45412;54.472;18.464;2023-03-14T16:27:17;12.20;;;3.60;;
59587;SDS011;45412;54.472;18.464;2023-03-14T16:30:04;10.40;;;3.50;;
59587;SDS011;45412;54.472;18.464;2023-03-14T16:32:52;9.40;;;3.40;;
59587;SDS011;45412;54.472;18.464;2023-03-14T16:35:39;9.10;;;3.10;;
59587;SDS011;45412;54.472;18.464;2023-03-14T16:38:26;9.60;;;2.70;;
59587;SDS011;45412;54.472;18.464;2023-03-14T16:41:19;8.40;;;2.60;;
59587;SDS011;45412;54.472;18.464;2023-03-14T16:44:05;8.50;;;3.00;;
59587;SDS011;45412;54.472;18.464;2023-03-14T16:46:52;7.40;;;2.90;;
59587;SDS011;45412;54.472;18.464;2023-03-14T16:49:39;8.30;;;2.70;;
59587;SDS011;45412;54.472;18.464;2023-03-14T16:52:26;9.70;;;3.30;;
59587;SDS011;45412;54.472;18.464;2023-03-14T16:55:12;9.00;;;3.00;;
59587;SDS011;45412;54.472;18.464;2023-03-14T16:57:59;9.10;;;3.40;;
59587;SDS011;45412;54.472;18.464;2023-03-14T17:00:45;9.40;;;3.30;;
59587;SDS011;45412;54.472;18.464;2023-03-14T17:03:32;10.50;;;3.50;;
59587;SDS011;45412;54.472;18.464;2023-03-14T17:06:23;11.80;;;3.80;;
59587;SDS011;45412;54.472;18.464;2023-03-14T17:09:11;8.90;;;3.00;;
59587;SDS011;45412;54.472;18.464;2023-03-14T17:11:59;8.80;;;3.10;;
59587;SDS011;45412;54.472;18.464;2023-03-14T17:14:45;9.60;;;3.80;;
59587;SDS011;45412;54.472;18.464;2023-03-14T17:17:32;9.10;;;3.30;;
59587;SDS011;45412;54.472;18.464;2023-03-14T17:20:18;8.20;;;3.20;;
59587;SDS011;45412;54.472;18.464;2023-03-14T17:23:04;8.60;;;2.90;;
59587;SDS011;45412;54.472;18.464;2023-03-14T17:25:51;7.60;;;2.50;;
59587;SDS011;45412;54.472;18.464;2023-03-14T17:28:38;8.70;;;2.50;;
59587;SDS011;45412;54.472;18.464;2023-03-14T17:31:25;8.40;;;2.30;;
59587;SDS011;45412;54.472;18.464;2023-03-14T17:34:12;9.20;;;2.60;;
59587;SDS011;45412;54.472;18.464;2023-03-14T17:36:58;8.40;;;2.30;;
59587;SDS011;45412;54.472;18.464;2023-03-14T17:39:44;7.00;;;2.40;;
59587;SDS011;45412;54.472;18.464;2023-03-14T17:42:31;8.90;;;2.50;;
59587;SDS011;45412;54.472;18.464;2023-03-14T17:45:17;8.10;;;2.50;;
59587;SDS011;45412;54.472;18.464;2023-03-14T17:48:04;8.50;;;2.50;;
59587;SDS011;45412;54.472;18.464;2023-03-14T17:50:51;8.00;;;2.70;;
59587;SDS011;45412;54.472;18.464;2023-03-14T17:53:38;10.90;;;3.00;;
59587;SDS011;45412;54.472;18.464;2023-03-14T17:56:25;8.50;;;3.20;;
59587;SDS011;45412;54.472;18.464;2023-03-14T17:59:12;9.70;;;3.40;;